createdAt,value
2023-02-21T00:04:51.257Z,11.65
2023-02-21T00:07:38.141Z,12.98
2023-02-21T00:10:26.031Z,13.02
2023-02-21T00:13:13.365Z,13.55
2023-02-21T00:15:59.558Z,13.75
2023-02-21T00:21:31.234Z,13.23
2023-02-21T00:24:17.099Z,13.07
2023-02-21T00:27:02.941Z,12.85
2023-02-21T00:29:50.608Z,13.15
2023-02-21T00:32:36.425Z,13.77
2023-02-21T00:35:22.926Z,13.70
2023-02-21T00:38:08.888Z,13.30
2023-02-21T00:43:46.770Z,11.90
2023-02-21T00:46:33.955Z,12.52
2023-02-21T00:49:19.866Z,13.55
2023-02-21T00:52:05.716Z,12.75
2023-02-21T00:54:51.830Z,13.80
2023-02-21T01:00:26.408Z,13.23
2023-02-21T01:03:14.438Z,13.85
2023-02-21T01:06:00.949Z,12.18
2023-02-21T01:08:48.720Z,13.77
2023-02-21T01:11:38.242Z,13.48
2023-02-21T01:14:28.157Z,14.95
2023-02-21T01:17:14.758Z,12.65
2023-02-21T01:20:02.359Z,13.15
2023-02-21T01:22:48.613Z,13.00
2023-02-21T01:25:35.041Z,13.82
2023-02-21T01:28:20.870Z,12.88
2023-02-21T01:31:06.740Z,13.70
2023-02-21T01:33:57.467Z,13.27
2023-02-21T01:36:45.737Z,13.88
2023-02-21T01:39:33.448Z,13.63
2023-02-21T01:42:19.827Z,13.73
2023-02-21T01:45:07.672Z,14.20
2023-02-21T01:47:53.568Z,13.18
2023-02-21T01:50:43.430Z,11.77
2023-02-21T01:53:35.347Z,12.00
2023-02-21T01:56:25.324Z,12.63
2023-02-21T01:59:13.676Z,12.93
2023-02-21T02:02:04.596Z,12.00
2023-02-21T02:04:52.770Z,12.02
2023-02-21T02:07:39.903Z,12.70
2023-02-21T02:10:29.346Z,11.93
2023-02-21T02:13:31.083Z,11.82
2023-02-21T02:16:03.887Z,12.75
2023-02-21T02:19:08.667Z,11.90
2023-02-21T02:22:19.451Z,12.30
2023-02-21T02:24:57.749Z,11.65
2023-02-21T02:27:48.752Z,10.95
2023-02-21T02:30:49.112Z,12.65
2023-02-21T02:33:50.128Z,11.32
2023-02-21T02:36:25.678Z,11.20
2023-02-21T02:39:03.043Z,11.88
2023-02-21T02:41:44.006Z,11.68
2023-02-21T02:44:20.101Z,11.80
2023-02-21T02:46:50.422Z,12.45
2023-02-21T02:49:24.581Z,11.45
2023-02-21T02:51:54.698Z,12.20
2023-02-21T02:54:25.596Z,11.93
2023-02-21T02:56:54.056Z,12.13
2023-02-21T02:59:26.168Z,12.27
2023-02-21T03:02:24.527Z,14.05
2023-02-21T03:05:06.837Z,13.10
2023-02-21T03:07:52.010Z,11.75
2023-02-21T03:10:26.364Z,12.93
2023-02-21T03:13:03.813Z,12.82
2023-02-21T03:15:39.300Z,12.90
2023-02-21T03:18:14.779Z,13.40
2023-02-21T03:20:45.465Z,13.52
2023-02-21T03:23:17.803Z,13.15
2023-02-21T03:25:47.958Z,12.85
2023-02-21T03:28:17.534Z,13.90
2023-02-21T03:30:51.120Z,13.45
2023-02-21T03:33:20.030Z,13.32
2023-02-21T03:35:48.836Z,13.02
2023-02-21T03:38:18.574Z,12.90
2023-02-21T03:40:47.183Z,13.15
2023-02-21T03:43:15.901Z,14.18
2023-02-21T03:45:50.883Z,13.80
2023-02-21T03:48:31.548Z,13.60
2023-02-21T03:51:07.353Z,12.43
2023-02-21T03:53:39.616Z,12.23
2023-02-21T03:56:09.858Z,11.95
2023-02-21T03:59:10.844Z,12.07
2023-02-21T04:01:39.526Z,13.23
2023-02-21T04:04:08.566Z,13.00
2023-02-21T04:06:37.597Z,12.07
2023-02-21T04:09:07.480Z,12.70
2023-02-21T04:11:37.077Z,12.15
2023-02-21T04:14:05.713Z,12.75
2023-02-21T04:16:34.357Z,12.90
2023-02-21T04:19:02.917Z,12.95
2023-02-21T04:21:31.688Z,12.15
2023-02-21T04:24:02.715Z,12.05
2023-02-21T04:26:34.971Z,13.23
2023-02-21T04:29:03.763Z,12.60
2023-02-21T04:31:32.860Z,12.77
2023-02-21T04:34:11.679Z,12.60
2023-02-21T04:36:43.347Z,13.05
2023-02-21T04:39:11.919Z,13.27
2023-02-21T04:41:42.153Z,12.68
2023-02-21T04:44:11.134Z,14.07
2023-02-21T04:46:39.671Z,13.77
2023-02-21T04:49:08.865Z,12.80
2023-02-21T04:51:37.592Z,13.60
2023-02-21T04:54:07.624Z,11.65
2023-02-21T04:56:37.484Z,12.45
2023-02-21T04:59:07.325Z,10.48
2023-02-21T05:01:35.889Z,11.23
2023-02-21T05:04:05.252Z,11.52
2023-02-21T05:06:34.583Z,12.45
2023-02-21T05:09:03.484Z,11.45
2023-02-21T05:11:34.698Z,12.23
2023-02-21T05:14:03.494Z,11.27
2023-02-21T05:16:33.344Z,11.82
2023-02-21T05:19:02.587Z,12.05
2023-02-21T05:21:34.994Z,11.80
2023-02-21T05:24:05.071Z,12.02
2023-02-21T05:26:36.296Z,12.23
2023-02-21T05:29:05.337Z,11.85
2023-02-21T05:31:35.117Z,12.18
2023-02-21T05:34:03.657Z,12.68
2023-02-21T05:36:32.018Z,13.18
2023-02-21T05:39:00.640Z,12.40
2023-02-21T05:41:29.040Z,12.82
2023-02-21T05:43:57.638Z,12.35
2023-02-21T05:46:28.412Z,12.10
2023-02-21T05:48:59.881Z,12.35
2023-02-21T05:51:29.686Z,11.98
2023-02-21T05:54:00.821Z,13.20
2023-02-21T05:56:29.222Z,11.52
2023-02-21T05:58:57.586Z,12.43
2023-02-21T06:01:28.018Z,13.13
2023-02-21T06:03:57.792Z,13.10
2023-02-21T06:06:26.178Z,12.98
2023-02-21T06:08:54.929Z,13.60
2023-02-21T06:11:25.454Z,13.55
2023-02-21T06:13:55.319Z,12.35
2023-02-21T06:16:24.391Z,12.77
2023-02-21T06:18:53.980Z,12.70
2023-02-21T06:21:24.156Z,12.60
2023-02-21T06:23:52.578Z,12.65
2023-02-21T06:26:21.727Z,13.02
2023-02-21T06:28:50.599Z,12.90
2023-02-21T06:31:20.381Z,12.70
2023-02-21T06:33:49.635Z,13.25
2023-02-21T06:36:20.806Z,13.00
2023-02-21T06:38:52.420Z,12.15
2023-02-21T06:41:24.521Z,11.88
2023-02-21T06:43:53.678Z,11.57
2023-02-21T06:46:24.069Z,11.88
2023-02-21T06:48:52.843Z,10.98
2023-02-21T06:51:21.768Z,11.43
2023-02-21T06:53:51.884Z,11.20
2023-02-21T06:56:20.251Z,12.27
2023-02-21T06:58:48.534Z,12.50
2023-02-21T07:01:17.350Z,12.48
2023-02-21T07:03:47.098Z,11.10
2023-02-21T07:06:16.104Z,11.52
2023-02-21T07:08:44.546Z,11.93
2023-02-21T07:11:15.563Z,12.02
2023-02-21T07:13:48.367Z,12.00
2023-02-21T07:16:17.980Z,11.15
2023-02-21T07:18:46.868Z,13.02
2023-02-21T07:21:16.565Z,12.60
2023-02-21T07:23:45.932Z,11.55
2023-02-21T07:26:16.035Z,11.77
2023-02-21T07:28:45.982Z,11.43
2023-02-21T07:31:16.138Z,11.40
2023-02-21T07:33:45.963Z,10.70
2023-02-21T07:36:14.278Z,11.20
2023-02-21T07:38:42.654Z,10.85
2023-02-21T07:41:10.982Z,10.40
2023-02-21T07:43:40.714Z,10.80
2023-02-21T07:46:11.159Z,11.93
2023-02-21T07:48:39.809Z,10.68
2023-02-21T07:51:08.842Z,11.00
2023-02-21T07:53:37.630Z,11.10
2023-02-21T07:56:06.512Z,11.18
2023-02-21T07:58:37.319Z,10.65
2023-02-21T08:01:07.765Z,11.43
2023-02-21T08:03:37.689Z,11.57
2023-02-21T08:06:06.493Z,11.32
2023-02-21T08:08:34.863Z,11.98
2023-02-21T08:11:03.255Z,10.63
2023-02-21T08:13:31.647Z,11.00
2023-02-21T08:16:00.074Z,10.65
2023-02-21T08:18:30.041Z,11.82
2023-02-21T08:20:58.436Z,12.05
2023-02-21T08:23:26.910Z,10.95
2023-02-21T08:25:55.322Z,12.25
2023-02-21T08:28:23.680Z,11.82
2023-02-21T08:30:53.701Z,11.18
2023-02-21T08:33:22.496Z,12.35
2023-02-21T08:35:52.217Z,11.88
2023-02-21T08:38:20.963Z,11.55
2023-02-21T08:40:51.251Z,11.35
2023-02-21T08:43:19.700Z,11.50
2023-02-21T08:45:48.059Z,11.02
2023-02-21T08:48:16.565Z,11.02
2023-02-21T08:50:44.906Z,10.48
2023-02-21T08:53:15.692Z,11.00
2023-02-21T08:55:44.486Z,10.88
2023-02-21T08:58:13.924Z,10.88
2023-02-21T09:00:42.362Z,10.75
2023-02-21T09:03:10.774Z,10.88
2023-02-21T09:05:40.147Z,10.77
2023-02-21T09:08:10.275Z,10.52
2023-02-21T09:10:47.180Z,11.05
2023-02-21T09:13:15.829Z,9.40
2023-02-21T09:15:44.445Z,10.55
2023-02-21T09:18:13.503Z,10.02
2023-02-21T09:20:42.721Z,10.40
2023-02-21T09:23:11.406Z,9.90
2023-02-21T09:25:41.175Z,9.60
2023-02-21T09:28:09.604Z,10.05
2023-02-21T09:30:38.180Z,9.70
2023-02-21T09:33:06.559Z,10.15
2023-02-21T09:35:35.033Z,10.90
2023-02-21T09:38:03.751Z,10.20
2023-02-21T09:40:38.202Z,10.82
2023-02-21T09:43:15.028Z,11.25
2023-02-21T09:45:45.077Z,11.02
2023-02-21T09:48:16.078Z,11.63
2023-02-21T09:50:48.199Z,10.68
2023-02-21T09:53:21.991Z,11.75
2023-02-21T09:55:55.022Z,10.85
2023-02-21T09:58:25.393Z,11.70
2023-02-21T10:00:54.133Z,11.88
2023-02-21T10:03:40.046Z,12.65
2023-02-21T10:06:16.375Z,11.93
2023-02-21T10:08:51.128Z,12.68
2023-02-21T10:11:34.030Z,12.00
2023-02-21T10:14:15.335Z,11.45
2023-02-21T10:16:49.694Z,11.70
2023-02-21T10:19:22.967Z,11.55
2023-02-21T10:21:51.628Z,12.00
2023-02-21T10:24:22.202Z,12.40
2023-02-21T10:26:57.202Z,12.60
2023-02-21T10:29:31.302Z,12.80
2023-02-21T10:32:04.103Z,12.23
2023-02-21T10:34:35.362Z,13.88
2023-02-21T10:37:16.353Z,12.90
2023-02-21T10:39:50.360Z,13.20
2023-02-21T10:42:27.522Z,13.10
2023-02-21T10:44:58.214Z,12.75
2023-02-21T10:47:33.943Z,13.85
2023-02-21T10:50:06.040Z,13.38
2023-02-21T10:52:38.467Z,13.48
2023-02-21T10:55:30.084Z,14.18
2023-02-21T10:58:08.606Z,14.23
2023-02-21T11:00:42.064Z,14.65
2023-02-21T11:03:22.896Z,15.15
2023-02-21T11:05:52.408Z,13.65
2023-02-21T11:08:37.597Z,14.18
2023-02-21T11:11:06.775Z,13.35
2023-02-21T11:13:36.150Z,13.52
2023-02-21T11:16:12.779Z,13.50
2023-02-21T11:18:41.242Z,13.48
2023-02-21T11:21:15.782Z,13.75
2023-02-21T11:23:57.847Z,15.10
2023-02-21T11:26:26.552Z,14.10
2023-02-21T11:28:55.056Z,14.07
2023-02-21T11:31:30.040Z,14.25
2023-02-21T11:34:00.772Z,14.10
2023-02-21T11:36:31.437Z,14.23
2023-02-21T11:39:08.241Z,13.75
2023-02-21T11:41:46.087Z,14.38
2023-02-21T11:44:27.916Z,13.00
2023-02-21T11:47:08.145Z,12.68
2023-02-21T11:49:47.637Z,14.38
2023-02-21T11:52:21.682Z,14.07
2023-02-21T11:54:50.087Z,12.85
2023-02-21T11:57:28.600Z,13.45
2023-02-21T12:00:04.238Z,13.40
2023-02-21T12:03:00.522Z,14.38
2023-02-21T12:05:54.566Z,13.07
2023-02-21T12:08:39.168Z,13.82
2023-02-21T12:11:23.253Z,13.97
2023-02-21T12:14:07.209Z,13.07
2023-02-21T12:16:45.986Z,14.02
2023-02-21T12:19:29.809Z,13.77
2023-02-21T12:22:03.646Z,12.80
2023-02-21T12:24:45.481Z,13.68
2023-02-21T12:27:20.883Z,13.77
2023-02-21T12:30:05.096Z,14.07
2023-02-21T12:32:45.586Z,12.45
2023-02-21T12:35:51.363Z,12.25
2023-02-21T12:38:30.401Z,12.32
2023-02-21T12:41:06.204Z,12.77
2023-02-21T12:43:55.453Z,13.02
2023-02-21T12:46:32.873Z,13.18
2023-02-21T12:49:07.687Z,13.10
2023-02-21T12:51:40.179Z,13.65
2023-02-21T12:54:15.125Z,13.82
2023-02-21T12:59:32.657Z,13.13
2023-02-21T13:02:07.173Z,13.27
2023-02-21T13:04:46.196Z,13.10
2023-02-21T13:07:26.798Z,12.95
2023-02-21T13:10:01.871Z,13.07
2023-02-21T13:12:37.270Z,13.05
2023-02-21T13:15:18.039Z,12.52
2023-02-21T13:17:53.551Z,13.07
2023-02-21T13:20:24.464Z,13.50
2023-02-21T13:23:43.499Z,12.73
2023-02-21T13:29:15.515Z,12.13
2023-02-21T13:31:46.029Z,13.02
2023-02-21T13:34:21.175Z,13.65
2023-02-21T13:36:50.033Z,13.75
2023-02-21T13:39:23.708Z,13.73
2023-02-21T13:42:01.556Z,14.02
2023-02-21T13:44:36.080Z,14.63
2023-02-21T13:47:17.472Z,14.98
2023-02-21T13:49:52.040Z,14.00
2023-02-21T13:52:38.879Z,14.65
2023-02-21T13:55:34.441Z,14.27
2023-02-21T14:00:54.929Z,13.82
2023-02-21T14:03:35.086Z,13.80
2023-02-21T14:06:32.902Z,14.70
2023-02-21T14:09:06.817Z,14.05
2023-02-21T14:11:39.443Z,14.57
2023-02-21T14:14:22.942Z,13.65
2023-02-21T14:16:58.981Z,13.93
2023-02-21T14:19:35.648Z,14.18
2023-02-21T14:22:11.377Z,13.32
2023-02-21T14:24:43.678Z,13.40
2023-02-21T14:27:36.535Z,13.80
2023-02-21T14:30:28.043Z,13.27
2023-02-21T14:33:04.517Z,13.82
2023-02-21T14:35:36.810Z,13.40
2023-02-21T14:38:08.603Z,13.82
2023-02-21T14:40:48.614Z,13.52
2023-02-21T14:43:32.608Z,12.48
2023-02-21T14:46:14.423Z,13.45
2023-02-21T14:49:04.295Z,14.10
2023-02-21T14:51:56.187Z,13.10
2023-02-21T14:55:01.788Z,12.95
2023-02-21T14:58:16.742Z,13.32
2023-02-21T15:01:00.405Z,12.25
2023-02-21T15:03:33.853Z,13.95
2023-02-21T15:06:08.726Z,12.70
2023-02-21T15:08:43.027Z,13.60
2023-02-21T15:11:23.542Z,13.05
2023-02-21T15:14:14.444Z,13.73
2023-02-21T15:16:47.481Z,13.10
2023-02-21T15:19:26.184Z,13.18
2023-02-21T15:22:25.442Z,14.07
2023-02-21T15:25:06.673Z,14.02
2023-02-21T15:27:35.835Z,13.13
2023-02-21T15:30:07.842Z,14.05
2023-02-21T15:32:36.912Z,13.13
2023-02-21T15:35:08.225Z,13.57
2023-02-21T15:37:41.754Z,13.18
2023-02-21T15:40:20.151Z,12.80
2023-02-21T15:42:50.783Z,13.30
2023-02-21T15:45:23.568Z,12.80
2023-02-21T15:47:52.583Z,12.55
2023-02-21T15:50:31.929Z,13.73
2023-02-21T15:53:15.334Z,12.90
2023-02-21T15:55:45.405Z,13.18
2023-02-21T15:58:18.325Z,12.48
2023-02-21T16:00:48.334Z,11.68
2023-02-21T16:03:32.712Z,12.85
2023-02-21T16:06:26.185Z,13.15
2023-02-21T16:09:01.893Z,11.77
2023-02-21T16:11:46.770Z,13.00
2023-02-21T16:14:27.420Z,11.65
2023-02-21T16:17:09.327Z,12.00
2023-02-21T16:19:38.181Z,12.00
2023-02-21T16:22:15.427Z,12.70
2023-02-21T16:24:45.219Z,11.70
2023-02-21T16:27:17.024Z,12.25
2023-02-21T16:29:45.484Z,12.70
2023-02-21T16:32:19.516Z,11.93
2023-02-21T16:34:48.940Z,11.88
2023-02-21T16:37:17.478Z,11.43
2023-02-21T16:39:47.562Z,11.90
2023-02-21T16:42:16.657Z,11.73
2023-02-21T16:44:45.844Z,12.07
2023-02-21T16:47:15.945Z,12.23
2023-02-21T16:49:45.148Z,11.80
2023-02-21T16:52:15.539Z,11.90
2023-02-21T16:54:44.252Z,11.68
2023-02-21T16:57:14.402Z,11.80
2023-02-21T16:59:42.927Z,12.18
2023-02-21T17:02:14.786Z,10.85
2023-02-21T17:04:43.302Z,10.80
2023-02-21T17:07:11.972Z,10.50
2023-02-21T17:09:41.742Z,10.77
2023-02-21T17:12:14.440Z,10.73
2023-02-21T17:14:42.859Z,11.80
2023-02-21T17:17:11.244Z,10.48
2023-02-21T17:19:39.738Z,10.70
2023-02-21T17:22:08.096Z,10.25
2023-02-21T17:24:36.562Z,11.00
2023-02-21T17:27:05.072Z,12.27
2023-02-21T17:29:34.891Z,11.43
2023-02-21T17:32:06.964Z,12.20
2023-02-21T17:34:36.208Z,11.70
2023-02-21T17:37:05.053Z,11.88
2023-02-21T17:39:33.460Z,10.57
2023-02-21T17:42:01.817Z,11.85
2023-02-21T17:44:30.207Z,11.10
2023-02-21T17:47:00.086Z,11.40
2023-02-21T17:49:29.666Z,10.80
2023-02-21T17:51:58.426Z,12.27
2023-02-21T17:54:28.108Z,11.35
2023-02-21T17:56:56.608Z,10.98
2023-02-21T17:59:29.141Z,11.98
2023-02-21T18:01:57.581Z,11.60
2023-02-21T18:04:27.448Z,12.07
2023-02-21T18:06:55.937Z,10.90
2023-02-21T18:09:25.618Z,9.75
2023-02-21T18:11:56.179Z,10.10
2023-02-21T18:14:26.101Z,11.32
2023-02-21T18:16:56.263Z,12.60
2023-02-21T18:19:25.251Z,10.10
2023-02-21T18:21:55.197Z,9.98
2023-02-21T18:24:23.908Z,11.68
2023-02-21T18:26:52.435Z,11.50
2023-02-21T18:29:20.879Z,11.15
2023-02-21T18:31:53.560Z,11.23
2023-02-21T18:34:22.508Z,10.48
2023-02-21T18:36:52.145Z,10.43
2023-02-21T18:39:24.216Z,9.88
2023-02-21T18:41:53.494Z,10.15
2023-02-21T18:44:22.007Z,9.88
2023-02-21T18:46:53.949Z,10.95
2023-02-21T18:49:22.922Z,10.13
2023-02-21T18:51:51.698Z,10.05
2023-02-21T18:54:22.023Z,10.80
2023-02-21T18:56:52.775Z,9.93
2023-02-21T18:59:23.756Z,10.85
2023-02-21T19:01:53.655Z,8.45
2023-02-21T19:04:22.751Z,10.07
2023-02-21T19:06:51.116Z,10.05
2023-02-21T19:09:19.605Z,8.93
2023-02-21T19:11:49.320Z,9.25
2023-02-21T19:14:18.571Z,9.07
2023-02-21T19:16:46.966Z,9.95
2023-02-21T19:19:15.478Z,8.95
2023-02-21T19:21:43.874Z,8.52
2023-02-21T19:24:12.450Z,9.07
2023-02-21T19:26:42.279Z,8.85
2023-02-21T19:29:12.317Z,8.68
2023-02-21T19:31:40.898Z,8.75
2023-02-21T19:34:10.149Z,9.45
2023-02-21T19:36:39.085Z,9.13
2023-02-21T19:39:09.056Z,9.90
2023-02-21T19:41:37.529Z,10.23
2023-02-21T19:44:08.145Z,9.30
2023-02-21T19:46:39.319Z,9.23
2023-02-21T19:49:17.461Z,10.32
2023-02-21T19:51:48.882Z,10.15
2023-02-21T19:54:19.823Z,9.40
2023-02-21T19:56:49.891Z,9.02
2023-02-21T19:59:19.372Z,9.43
2023-02-21T20:01:49.153Z,9.07
2023-02-21T20:04:18.863Z,9.30
2023-02-21T20:06:49.702Z,9.38
2023-02-21T20:09:18.292Z,8.23
2023-02-21T20:11:46.616Z,9.13
2023-02-21T20:14:17.433Z,8.57
2023-02-21T20:16:46.630Z,9.82
2023-02-21T20:19:16.611Z,9.68
2023-02-21T20:21:45.792Z,9.88
2023-02-21T20:24:14.236Z,9.27
2023-02-21T20:26:42.562Z,9.35
2023-02-21T20:29:12.083Z,9.98
2023-02-21T20:31:40.592Z,9.30
2023-02-21T20:34:09.211Z,10.80
2023-02-21T20:36:42.383Z,14.45
2023-02-21T20:39:20.113Z,14.90
2023-02-21T20:41:48.991Z,15.45
2023-02-21T20:44:17.483Z,16.02
2023-02-21T20:46:47.013Z,16.83
2023-02-21T20:49:15.813Z,17.98
2023-02-21T20:51:45.556Z,17.05
2023-02-21T20:54:19.682Z,16.50
2023-02-21T20:56:50.007Z,20.80
2023-02-21T20:59:21.070Z,16.73
2023-02-21T21:01:49.953Z,17.27
2023-02-21T21:04:20.648Z,16.88
2023-02-21T21:06:50.969Z,19.55
2023-02-21T21:09:28.616Z,19.95
2023-02-21T21:12:00.605Z,16.05
2023-02-21T21:14:31.362Z,18.50
2023-02-21T21:17:00.564Z,17.08
2023-02-21T21:19:33.230Z,16.05
2023-02-21T21:22:04.187Z,16.85
2023-02-21T21:24:32.958Z,17.73
2023-02-21T21:27:07.599Z,16.90
2023-02-21T21:29:38.401Z,19.02
2023-02-21T21:32:09.181Z,16.83
2023-02-21T21:34:41.910Z,15.85
2023-02-21T21:37:12.060Z,14.95
2023-02-21T21:39:44.708Z,16.27
2023-02-21T21:42:17.024Z,17.38
2023-02-21T21:44:47.609Z,16.65
2023-02-21T21:47:16.470Z,15.63
2023-02-21T21:49:45.904Z,15.45
2023-02-21T21:52:16.090Z,16.13
2023-02-21T21:54:45.530Z,16.20
2023-02-21T21:57:16.228Z,13.75
2023-02-21T21:59:45.474Z,14.95
2023-02-21T22:02:14.026Z,14.10
2023-02-21T22:04:42.717Z,13.85
2023-02-21T22:07:12.682Z,13.55
2023-02-21T22:09:42.584Z,13.50
2023-02-21T22:12:16.933Z,14.48
2023-02-21T22:14:45.329Z,13.88
2023-02-21T22:17:13.818Z,13.85
2023-02-21T22:19:42.889Z,12.57
2023-02-21T22:22:11.271Z,12.98
2023-02-21T22:24:41.755Z,12.60
2023-02-21T22:27:10.096Z,13.32
2023-02-21T22:29:38.527Z,12.68
2023-02-21T22:32:07.667Z,13.27
2023-02-21T22:34:36.042Z,14.73
2023-02-21T22:37:04.418Z,13.82
2023-02-21T22:39:32.812Z,13.57
2023-02-21T22:42:05.160Z,17.23
2023-02-21T22:44:36.333Z,14.25
2023-02-21T22:47:05.163Z,12.77
2023-02-21T22:49:33.582Z,13.60
2023-02-21T22:52:03.968Z,13.25
2023-02-21T22:54:32.456Z,15.43
2023-02-21T22:57:03.389Z,14.00
2023-02-21T22:59:35.232Z,13.45
2023-02-21T23:02:04.144Z,15.00
2023-02-21T23:04:36.039Z,13.60
2023-02-21T23:07:06.402Z,14.50
2023-02-21T23:09:36.836Z,14.93
2023-02-21T23:12:07.229Z,14.85
2023-02-21T23:14:35.747Z,13.48
2023-02-21T23:17:04.458Z,13.23
2023-02-21T23:19:32.907Z,13.50
2023-02-21T23:22:01.659Z,13.15
2023-02-21T23:24:30.051Z,13.57
2023-02-21T23:26:58.390Z,13.32
2023-02-21T23:29:28.183Z,12.70
2023-02-21T23:32:08.995Z,11.85
2023-02-21T23:34:41.250Z,11.88
2023-02-21T23:37:12.039Z,12.07
2023-02-21T23:39:41.865Z,12.23
2023-02-21T23:42:10.780Z,11.05
2023-02-21T23:44:41.160Z,11.63
2023-02-21T23:47:09.576Z,10.45
2023-02-21T23:49:43.947Z,10.45
2023-02-21T23:52:12.518Z,9.70
2023-02-21T23:54:41.508Z,9.60
2023-02-21T23:57:09.882Z,9.88
2023-02-21T23:59:38.264Z,9.20
